Time;durP1;ratioP1;P1;durP2;ratioP2;P2;SDS_P1;SDS_P2;PMS_P1;PMS_P2;Temp;Humidity;BMP_temperature;BMP_pressure;BME280_temperature;BME280_humidity;BME280_pressure;Samples;Min_cycle;Max_cycle;Signal;HPM_P1;HPM_P2
2021/06/15 00:00:12;;;;;;;4.40;2.05;;;23.20;92.10;;;;;;4986427;28;20518;-81
2021/06/15 00:02:38;;;;;;;2.58;2.15;;;23.20;91.80;;;;;;4978651;28;20273;-81
2021/06/15 00:05:05;;;;;;;3.85;2.30;;;23.20;92.10;;;;;;4973442;28;20368;-82
2021/06/15 00:07:31;;;;;;;3.15;2.25;;;23.10;92.10;;;;;;4960907;28;20027;-81
2021/06/15 00:09:58;;;;;;;4.15;2.33;;;23.10;92.10;;;;;;4986856;28;20369;-81
2021/06/15 00:12:24;;;;;;;5.97;2.10;;;23.00;92.00;;;;;;4972561;28;20027;-81
2021/06/15 00:14:49;;;;;;;3.72;2.50;;;23.00;92.30;;;;;;4976121;28;20444;-81
2021/06/15 00:17:15;;;;;;;3.90;2.40;;;23.00;92.10;;;;;;4994163;28;20034;-81
2021/06/15 00:19:41;;;;;;;3.50;2.47;;;23.00;92.30;;;;;;4974812;28;20061;-81
2021/06/15 00:22:06;;;;;;;4.45;2.33;;;22.90;92.20;;;;;;4981134;28;20026;-81
2021/06/15 00:24:32;;;;;;;4.95;2.22;;;22.90;92.70;;;;;;4989512;28;20361;-81
2021/06/15 00:26:58;;;;;;;4.57;2.30;;;22.90;92.70;;;;;;4981805;28;20041;-81
2021/06/15 00:29:23;;;;;;;4.53;2.38;;;22.90;92.70;;;;;;4974057;28;20026;-81
2021/06/15 00:31:49;;;;;;;3.75;2.60;;;22.80;92.80;;;;;;4988240;28;20388;-81
2021/06/15 00:34:15;;;;;;;5.40;2.58;;;22.80;93.20;;;;;;4974211;28;20085;-81
2021/06/15 00:36:41;;;;;;;3.20;2.70;;;22.80;93.10;;;;;;4977466;28;20027;-81
2021/06/15 00:39:06;;;;;;;5.93;2.70;;;22.70;93.30;;;;;;4974481;28;20026;-81
2021/06/15 00:41:32;;;;;;;3.92;2.70;;;22.70;93.30;;;;;;4979944;28;20049;-81
2021/06/15 00:43:58;;;;;;;4.57;2.70;;;22.70;93.30;;;;;;4974272;28;20053;-81
2021/06/15 00:46:24;;;;;;;4.15;2.85;;;22.70;93.60;;;;;;4983347;28;20530;-82
2021/06/15 00:48:50;;;;;;;6.28;2.97;;;22.70;93.40;;;;;;4975484;28;20015;-81
2021/06/15 00:51:16;;;;;;;5.10;2.42;;;22.70;93.60;;;;;;4982338;28;20303;-81
2021/06/15 00:53:42;;;;;;;6.32;3.00;;;22.60;93.80;;;;;;4976311;28;20499;-81
2021/06/15 00:56:09;;;;;;;3.65;3.20;;;22.60;93.90;;;;;;4981014;28;20038;-81
2021/06/15 00:58:35;;;;;;;3.38;3.00;;;22.60;93.70;;;;;;4976826;28;20046;-81
2021/06/15 01:01:03;;;;;;;7.57;2.95;;;22.60;94.10;;;;;;4980219;28;20053;-81
2021/06/15 01:03:29;;;;;;;4.50;3.15;;;22.50;94.50;;;;;;4977596;28;20011;-81
2021/06/15 01:05:56;;;;;;;6.10;3.08;;;22.50;94.40;;;;;;4986046;28;20042;-81
2021/06/15 01:08:41;;;;;;;8.73;3.45;;;22.50;94.90;;;;;;4980878;28;20477;-81
2021/06/15 01:11:40;;;;;;;6.30;3.50;;;22.40;94.90;;;;;;4981025;28;20058;-81
2021/06/15 01:14:14;;;;;;;6.38;3.05;;;22.50;95.10;;;;;;4972847;28;20477;-81
2021/06/15 01:16:50;;;;;;;4.38;3.25;;;22.40;95.20;;;;;;4984449;28;20027;-81
2021/06/15 01:19:24;;;;;;;5.05;3.45;;;22.40;95.40;;;;;;4973527;28;20398;-80
2021/06/15 01:22:28;;;;;;;4.38;3.17;;;22.40;95.30;;;;;;4985738;28;20065;-80
2021/06/15 01:25:05;;;;;;;5.63;3.53;;;22.40;95.50;;;;;;4965188;28;20029;-80
2021/06/15 01:27:50;;;;;;;6.25;3.80;;;22.40;95.70;;;;;;4979370;28;20015;-80
2021/06/15 01:30:20;;;;;;;5.13;3.55;;;22.40;95.60;;;;;;4975729;28;20027;-80
2021/06/15 01:32:52;;;;;;;4.70;3.97;;;22.40;95.80;;;;;;4981330;28;20018;-80
2021/06/15 01:35:19;;;;;;;6.75;3.42;;;22.40;95.90;;;;;;4975997;28;20031;-80
2021/06/15 01:37:55;;;;;;;6.03;3.80;;;22.30;96.20;;;;;;4977190;28;20070;-80
2021/06/15 01:40:33;;;;;;;7.25;4.20;;;22.30;96.00;;;;;;4987917;28;20038;-80
2021/06/15 01:43:02;;;;;;;6.68;4.00;;;22.20;96.30;;;;;;4978416;28;20018;-80
2021/06/15 01:45:35;;;;;;;4.35;3.75;;;22.20;96.20;;;;;;4977978;28;20080;-80
2021/06/15 01:48:19;;;;;;;10.77;4.22;;;22.20;96.60;;;;;;4989464;28;20022;-80
2021/06/15 01:50:47;;;;;;;5.85;4.20;;;22.20;96.80;;;;;;4977190;28;20037;-81
2021/06/15 01:53:16;;;;;;;4.72;3.72;;;22.10;97.20;;;;;;4990260;28;20023;-80
2021/06/15 01:55:47;;;;;;;5.85;4.20;;;22.10;97.10;;;;;;4977894;28;20064;-80
2021/06/15 01:58:13;;;;;;;6.05;3.85;;;22.10;97.70;;;;;;4985690;28;20058;-80
2021/06/15 02:00:40;;;;;;;8.45;4.15;;;22.00;97.50;;;;;;4989307;28;20507;-80
2021/06/15 02:03:07;;;;;;;9.75;4.70;;;22.10;97.40;;;;;;4980180;28;20027;-80
2021/06/15 02:05:46;;;;;;;5.85;4.25;;;22.10;97.40;;;;;;4977623;28;20042;-80
2021/06/15 02:08:18;;;;;;;6.20;4.35;;;22.10;97.60;;;;;;4971866;28;20106;-80
2021/06/15 02:10:44;;;;;;;7.25;4.38;;;22.10;97.70;;;;;;4976493;28;20517;-80
2021/06/15 02:13:11;;;;;;;6.40;4.50;;;22.00;97.60;;;;;;4979537;28;20034;-80
2021/06/15 02:15:38;;;;;;;7.72;4.22;;;22.00;97.90;;;;;;4975330;28;20510;-80
2021/06/15 02:18:06;;;;;;;7.03;4.47;;;22.00;98.00;;;;;;4980373;28;20041;-81
2021/06/15 02:20:37;;;;;;;9.32;4.90;;;21.90;98.20;;;;;;4974956;28;20023;-80
2021/06/15 02:23:04;;;;;;;5.55;4.25;;;21.90;98.30;;;;;;4977847;28;20054;-80
2021/06/15 02:25:34;;;;;;;6.38;4.25;;;21.90;98.40;;;;;;4974684;28;20440;-80
2021/06/15 02:28:00;;;;;;;5.65;4.38;;;21.90;98.40;;;;;;4977350;28;20026;-80
2021/06/15 02:30:26;;;;;;;6.97;4.50;;;21.90;98.70;;;;;;4974669;28;20098;-80
2021/06/15 02:32:54;;;;;;;5.97;4.75;;;21.90;98.70;;;;;;4981146;28;20110;-81
2021/06/15 02:35:24;;;;;;;7.40;4.50;;;21.80;99.10;;;;;;4974362;28;20057;-80
2021/06/15 02:38:06;;;;;;;10.43;4.55;;;21.80;99.20;;;;;;4978049;28;20117;-81
2021/06/15 02:40:32;;;;;;;6.65;5.03;;;21.80;99.40;;;;;;4974906;28;20026;-81
2021/06/15 02:43:00;;;;;;;7.15;5.00;;;21.70;99.50;;;;;;4974963;28;20555;-81
2021/06/15 02:45:31;;;;;;;5.38;4.72;;;21.70;99.90;;;;;;4976037;28;20030;-81
2021/06/15 02:48:01;;;;;;;6.90;4.90;;;21.70;99.90;;;;;;4982497;28;20499;-80
2021/06/15 02:50:28;;;;;;;7.78;5.32;;;21.60;99.90;;;;;;4974143;28;20026;-80
2021/06/15 02:53:21;;;;;;;11.45;5.05;;;21.60;99.90;;;;;;4988664;28;20065;-80
2021/06/15 02:55:58;;;;;;;13.05;4.82;;;21.50;99.90;;;;;;4976711;28;20014;-80
2021/06/15 02:58:26;;;;;;;9.15;5.28;;;21.50;99.90;;;;;;4983912;28;20058;-80
2021/06/15 03:00:51;;;;;;;9.30;5.63;;;21.50;99.90;;;;;;4977202;28;20031;-80
2021/06/15 03:03:17;;;;;;;6.95;5.05;;;21.50;99.90;;;;;;4985073;28;20037;-80
2021/06/15 03:05:43;;;;;;;7.07;4.90;;;21.50;99.90;;;;;;4978359;28;20391;-80
2021/06/15 03:08:10;;;;;;;6.30;5.25;;;21.50;99.90;;;;;;4972276;28;20380;-80
2021/06/15 03:10:36;;;;;;;6.03;5.30;;;21.40;99.90;;;;;;4973989;28;20038;-80
2021/06/15 03:13:15;;;;;;;8.57;5.25;;;21.40;99.90;;;;;;4979690;28;20023;-80
2021/06/15 03:15:45;;;;;;;6.47;5.72;;;21.40;99.90;;;;;;4974382;28;20027;-80
2021/06/15 03:18:25;;;;;;;8.15;6.18;;;21.40;99.90;;;;;;4975513;28;20015;-80
2021/06/15 03:20:54;;;;;;;8.60;5.47;;;21.30;99.90;;;;;;4989457;28;20042;-80
2021/06/15 03:23:48;;;;;;;11.18;6.10;;;21.30;99.90;;;;;;4975043;28;20102;-80
2021/06/15 03:26:21;;;;;;;9.30;6.32;;;21.20;99.90;;;;;;4978843;28;20368;-80
2021/06/15 03:28:53;;;;;;;9.70;5.93;;;21.20;99.90;;;;;;4973588;28;20502;-80
2021/06/15 03:31:20;;;;;;;8.38;6.03;;;21.20;99.90;;;;;;4973680;28;20034;-80
2021/06/15 03:33:49;;;;;;;7.38;5.90;;;21.20;99.90;;;;;;4976198;28;20093;-80
2021/06/15 03:36:18;;;;;;;9.27;6.05;;;21.20;99.90;;;;;;4974020;28;20027;-81
2021/06/15 03:38:47;;;;;;;8.32;6.13;;;21.20;99.90;;;;;;4991747;28;20031;-80
2021/06/15 03:41:16;;;;;;;7.82;6.10;;;21.20;99.90;;;;;;4976459;28;20098;-80
2021/06/15 03:43:51;;;;;;;8.13;6.35;;;21.20;99.90;;;;;;4977844;28;20406;-80
2021/06/15 03:46:21;;;;;;;12.60;6.95;;;21.10;99.90;;;;;;4976011;28;20061;-80
2021/06/15 03:48:49;;;;;;;9.82;6.43;;;21.10;99.90;;;;;;4979609;28;20107;-80
2021/06/15 03:51:26;;;;;;;9.65;6.20;;;21.10;99.90;;;;;;4978478;28;20105;-81
2021/06/15 03:54:05;;;;;;;8.93;6.57;;;21.10;99.90;;;;;;4972335;28;20069;-81
2021/06/15 03:56:35;;;;;;;12.20;6.53;;;21.10;99.90;;;;;;4975259;28;20055;-81
2021/06/15 03:59:01;;;;;;;11.82;6.50;;;21.00;99.90;;;;;;4971005;28;20416;-81
2021/06/15 04:01:28;;;;;;;9.77;6.35;;;21.00;99.90;;;;;;4979059;28;20367;-80
2021/06/15 04:03:55;;;;;;;8.25;6.47;;;21.10;99.90;;;;;;4971080;28;20019;-81
2021/06/15 04:06:21;;;;;;;7.53;6.05;;;21.00;99.90;;;;;;4978395;28;20034;-81
2021/06/15 04:08:49;;;;;;;10.07;6.93;;;21.00;99.90;;;;;;4978594;28;20301;-81
2021/06/15 04:11:17;;;;;;;12.07;6.80;;;20.90;99.90;;;;;;4982099;28;20541;-81
2021/06/15 04:13:44;;;;;;;9.00;6.25;;;20.90;99.90;;;;;;4972273;28;20105;-81
2021/06/15 04:16:12;;;;;;;8.23;6.85;;;20.90;99.90;;;;;;4976754;28;20030;-80
2021/06/15 04:18:43;;;;;;;8.82;6.68;;;20.90;99.90;;;;;;4972053;28;20027;-80
2021/06/15 04:21:12;;;;;;;9.30;6.35;;;20.80;99.90;;;;;;4977749;28;20117;-80
2021/06/15 04:23:47;;;;;;;8.68;6.85;;;20.80;99.90;;;;;;4974444;28;20025;-80
2021/06/15 04:26:13;;;;;;;8.90;6.20;;;20.80;99.90;;;;;;4975538;28;20031;-80
2021/06/15 04:28:39;;;;;;;9.80;6.82;;;20.80;99.90;;;;;;4970605;28;20515;-80
2021/06/15 04:31:06;;;;;;;7.35;5.88;;;20.80;99.90;;;;;;4976969;28;20069;-80
2021/06/15 04:33:32;;;;;;;9.07;6.82;;;20.80;99.90;;;;;;4975166;28;20031;-80
2021/06/15 04:36:04;;;;;;;10.57;6.45;;;20.90;99.90;;;;;;4975978;28;20034;-80
2021/06/15 04:38:51;;;;;;;10.07;7.00;;;20.90;99.90;;;;;;4975443;28;20058;-80
2021/06/15 04:41:20;;;;;;;8.88;6.90;;;20.80;99.90;;;;;;4978428;28;20042;-80
2021/06/15 04:43:51;;;;;;;8.40;6.25;;;20.80;99.90;;;;;;4973101;28;20102;-80
2021/06/15 04:46:21;;;;;;;11.98;6.95;;;20.90;99.90;;;;;;4976998;28;20030;-80
2021/06/15 04:48:55;;;;;;;8.40;6.28;;;20.90;99.90;;;;;;4972323;28;20585;-80
2021/06/15 04:51:21;;;;;;;7.82;6.60;;;20.90;99.90;;;;;;4972723;28;20415;-80
2021/06/15 04:53:50;;;;;;;11.60;6.75;;;20.90;99.90;;;;;;4970393;28;20023;-80
2021/06/15 04:56:17;;;;;;;9.25;6.45;;;20.80;99.90;;;;;;4975692;28;20046;-80
2021/06/15 04:58:44;;;;;;;10.55;6.20;;;20.80;99.90;;;;;;4972504;28;20039;-80
2021/06/15 05:01:11;;;;;;;8.65;6.53;;;20.90;99.90;;;;;;4976075;28;20411;-81
2021/06/15 05:03:37;;;;;;;8.20;6.93;;;21.00;99.90;;;;;;4976004;28;20361;-80
2021/06/15 05:06:05;;;;;;;10.55;6.72;;;20.90;99.90;;;;;;4976427;28;20042;-80
2021/06/15 05:08:39;;;;;;;7.28;6.55;;;21.00;99.90;;;;;;4976830;28;20105;-80
2021/06/15 05:11:06;;;;;;;11.45;6.53;;;20.90;99.90;;;;;;4975821;28;20416;-80
2021/06/15 05:13:35;;;;;;;9.60;6.50;;;21.00;99.90;;;;;;4977726;28;20030;-81
2021/06/15 05:16:04;;;;;;;11.20;6.75;;;21.10;99.90;;;;;;4975798;28;20054;-80
2021/06/15 05:18:31;;;;;;;7.88;6.13;;;21.10;99.90;;;;;;4978347;28;20019;-80
2021/06/15 05:20:58;;;;;;;10.27;7.13;;;21.10;99.90;;;;;;4993398;28;20476;-80
2021/06/15 05:24:02;;;;;;;11.45;6.38;;;21.20;99.90;;;;;;4973553;28;20026;-80
2021/06/15 05:26:30;;;;;;;11.43;6.78;;;21.20;99.90;;;;;;4976014;28;20023;-80
2021/06/15 05:28:55;;;;;;;8.52;6.53;;;21.20;99.90;;;;;;4971962;28;20041;-80
2021/06/15 05:31:21;;;;;;;9.07;6.68;;;21.30;99.90;;;;;;4977609;28;20039;-80
2021/06/15 05:33:47;;;;;;;9.90;6.90;;;21.30;99.90;;;;;;4974091;28;20097;-81
2021/06/15 05:36:13;;;;;;;12.25;7.43;;;21.20;99.90;;;;;;4976546;28;20078;-82
2021/06/15 05:38:38;;;;;;;15.32;9.18;;;21.30;99.90;;;;;;4973284;28;20023;-81
2021/06/15 05:41:04;;;;;;;14.02;12.35;;;21.40;99.90;;;;;;4976697;28;20039;-83
2021/06/15 05:43:30;;;;;;;18.70;11.73;;;21.50;99.90;;;;;;4973097;28;20027;-82
2021/06/15 05:45:55;;;;;;;14.43;11.63;;;21.50;99.90;;;;;;4972163;28;20034;-83
2021/06/15 05:48:24;;;;;;;19.65;14.80;;;21.50;99.90;;;;;;4972904;28;20031;-71
2021/06/15 05:50:50;;;;;;;18.60;14.35;;;21.60;99.90;;;;;;4976799;28;20159;-71
2021/06/15 05:53:16;;;;;;;20.73;15.02;;;21.60;99.90;;;;;;4973477;28;20109;-71
2021/06/15 05:55:42;;;;;;;16.00;11.88;;;21.50;99.90;;;;;;4972734;28;20081;-71
2021/06/15 05:58:08;;;;;;;16.40;9.88;;;21.60;99.90;;;;;;4971845;28;20220;-71
2021/06/15 06:00:33;;;;;;;11.13;8.43;;;21.70;99.90;;;;;;4972425;28;20030;-71
2021/06/15 06:02:59;;;;;;;10.50;7.10;;;21.70;99.90;;;;;;4971808;28;20015;-71
2021/06/15 06:08:10;;;;;;;15.40;6.75;;;21.90;99.90;;;;;;4971309;28;20081;-71
2021/06/15 06:10:38;;;;;;;12.90;6.40;;;21.90;99.90;;;;;;4969544;28;20038;-71
2021/06/15 06:13:06;;;;;;;8.07;5.47;;;22.00;99.90;;;;;;4962964;28;20085;-71
2021/06/15 06:15:32;;;;;;;7.93;6.00;;;22.00;99.90;;;;;;4974748;28;20200;-71
2021/06/15 06:18:06;;;;;;;8.90;6.13;;;22.10;99.90;;;;;;4980860;28;20533;-71
2021/06/15 06:20:32;;;;;;;10.32;5.82;;;22.10;99.90;;;;;;4974716;28;20178;-71
2021/06/15 06:22:59;;;;;;;8.25;5.72;;;22.10;99.90;;;;;;4978358;28;20236;-71
2021/06/15 06:25:27;;;;;;;7.85;5.55;;;22.20;99.90;;;;;;4974638;28;20022;-71
2021/06/15 06:27:53;;;;;;;10.18;6.13;;;22.20;99.90;;;;;;4979932;28;20403;-71
2021/06/15 06:30:20;;;;;;;6.97;5.53;;;22.20;99.90;;;;;;4974458;28;20045;-71
2021/06/15 06:32:45;;;;;;;15.52;6.10;;;22.30;99.90;;;;;;4981401;28;20085;-72
2021/06/15 06:35:11;;;;;;;8.23;5.20;;;22.30;99.90;;;;;;4974297;28;20030;-71
2021/06/15 06:37:37;;;;;;;9.75;5.60;;;22.40;99.90;;;;;;4978068;28;20075;-71
2021/06/15 06:40:04;;;;;;;14.93;5.47;;;22.50;99.90;;;;;;4973802;28;20057;-71
2021/06/15 06:42:30;;;;;;;6.25;5.20;;;22.60;99.90;;;;;;4977449;28;20388;-71
2021/06/15 06:44:55;;;;;;;8.85;5.70;;;22.70;99.90;;;;;;4972832;28;20060;-71
2021/06/15 06:47:21;;;;;;;8.88;4.88;;;22.80;99.90;;;;;;4977450;28;20026;-71
2021/06/15 06:49:47;;;;;;;7.85;4.90;;;22.90;99.90;;;;;;4968566;28;20101;-70
2021/06/15 06:52:12;;;;;;;8.73;4.82;;;22.90;99.90;;;;;;4974751;28;20518;-71
2021/06/15 06:54:38;;;;;;;6.18;4.22;;;22.90;99.90;;;;;;4966670;28;20030;-71
2021/06/15 06:57:04;;;;;;;10.50;4.65;;;23.00;99.90;;;;;;4966264;28;20285;-70
2021/06/15 06:59:30;;;;;;;7.22;4.15;;;23.10;99.90;;;;;;4969764;28;20046;-70
2021/06/15 07:01:55;;;;;;;5.40;4.13;;;23.30;99.90;;;;;;4971742;28;20026;-70
2021/06/15 07:04:21;;;;;;;7.68;4.50;;;23.30;99.90;;;;;;4970792;28;20058;-70
2021/06/15 07:06:47;;;;;;;8.48;4.30;;;23.40;99.90;;;;;;4976783;28;20086;-71
2021/06/15 07:09:12;;;;;;;8.20;4.50;;;23.40;99.90;;;;;;4971081;28;20041;-71
2021/06/15 07:11:38;;;;;;;8.18;4.35;;;23.60;99.90;;;;;;4974228;28;20035;-70
2021/06/15 07:14:04;;;;;;;5.43;4.03;;;23.80;99.90;;;;;;4970647;28;20031;-71
2021/06/15 07:16:29;;;;;;;5.45;4.28;;;23.80;99.90;;;;;;4979336;28;20026;-70
2021/06/15 07:18:55;;;;;;;5.10;4.10;;;23.90;99.50;;;;;;4970547;28;20603;-71
2021/06/15 07:21:21;;;;;;;7.35;4.00;;;24.00;99.40;;;;;;4972925;28;20435;-71
2021/06/15 07:23:46;;;;;;;6.75;4.07;;;24.00;99.50;;;;;;4971062;28;20027;-70
2021/06/15 07:26:12;;;;;;;9.70;3.72;;;24.10;99.40;;;;;;4976354;28;20113;-70
2021/06/15 07:28:38;;;;;;;6.32;4.25;;;24.20;99.00;;;;;;4979193;28;20069;-71
2021/06/15 07:31:03;;;;;;;6.07;3.50;;;24.30;98.80;;;;;;4976270;28;20412;-72
2021/06/15 07:33:29;;;;;;;4.10;3.45;;;24.40;99.00;;;;;;4971723;28;20033;-70
2021/06/15 07:35:55;;;;;;;9.15;3.92;;;24.50;99.10;;;;;;4975674;28;20037;-70
2021/06/15 07:38:21;;;;;;;6.18;3.70;;;24.60;99.00;;;;;;4970398;28;20046;-70
2021/06/15 07:40:47;;;;;;;8.35;4.53;;;24.60;99.10;;;;;;4975049;28;20069;-70
2021/06/15 07:43:14;;;;;;;7.40;4.13;;;24.80;98.60;;;;;;4970537;28;20480;-71
2021/06/15 07:45:40;;;;;;;6.00;3.40;;;24.90;98.10;;;;;;4971006;28;20027;-71
2021/06/15 07:48:06;;;;;;;6.32;3.60;;;25.00;97.60;;;;;;4977233;28;20085;-71
2021/06/15 07:50:32;;;;;;;6.47;3.40;;;25.00;97.30;;;;;;4969902;28;20488;-70
2021/06/15 07:53:00;;;;;;;7.80;3.67;;;25.20;97.30;;;;;;4971872;28;20023;-70
2021/06/15 07:55:26;;;;;;;7.13;3.58;;;25.20;97.20;;;;;;4972943;28;20033;-70
2021/06/15 07:57:52;;;;;;;7.47;3.38;;;25.30;97.10;;;;;;4970245;28;20051;-71
2021/06/15 08:00:18;;;;;;;11.20;4.10;;;25.30;96.70;;;;;;4972834;28;20026;-76
2021/06/15 08:02:45;;;;;;;5.35;3.40;;;25.40;96.60;;;;;;4971306;28;20059;-71
2021/06/15 08:05:12;;;;;;;5.07;2.80;;;25.50;96.50;;;;;;4971114;28;20030;-70
2021/06/15 08:07:38;;;;;;;7.97;3.45;;;25.60;96.00;;;;;;4976449;28;20029;-71
2021/06/15 08:10:05;;;;;;;5.85;3.00;;;25.60;95.80;;;;;;4980187;28;20042;-71
2021/06/15 08:12:31;;;;;;;5.95;3.55;;;25.80;95.80;;;;;;4976367;28;20019;-70
2021/06/15 08:14:57;;;;;;;4.95;2.97;;;25.80;95.80;;;;;;4969939;28;20045;-71
2021/06/15 08:17:23;;;;;;;5.70;3.28;;;25.80;95.30;;;;;;4969847;28;20023;-71
2021/06/15 08:19:51;;;;;;;4.25;3.25;;;25.90;95.80;;;;;;4969602;28;20368;-71
2021/06/15 08:22:16;;;;;;;6.40;2.97;;;26.00;95.40;;;;;;4979869;28;20023;-72
2021/06/15 08:24:42;;;;;;;3.92;2.92;;;26.10;95.10;;;;;;4970387;28;20403;-71
2021/06/15 08:27:08;;;;;;;4.65;3.35;;;26.20;95.00;;;;;;4976737;28;20022;-71
2021/06/15 08:29:34;;;;;;;3.72;2.85;;;26.30;94.70;;;;;;4980481;28;20111;-71
2021/06/15 08:32:03;;;;;;;7.47;3.05;;;26.30;94.40;;;;;;4977775;28;20121;-71
2021/06/15 08:34:34;;;;;;;5.22;2.80;;;26.40;94.40;;;;;;4973958;28;20019;-71
2021/06/15 08:37:01;;;;;;;10.05;3.63;;;26.50;94.70;;;;;;4984860;28;20049;-71
2021/06/15 08:39:27;;;;;;;4.28;3.28;;;26.60;93.60;;;;;;4973773;28;20022;-71
2021/06/15 08:41:53;;;;;;;3.05;2.42;;;26.60;93.90;;;;;;4984608;28;20498;-71
2021/06/15 08:44:18;;;;;;;6.38;3.03;;;26.70;93.40;;;;;;4973608;28;20034;-71
2021/06/15 09:58:13;;;;;;;3.60;2.10;;;28.10;84.20;;;;;;5093302;27;20412;-72
2021/06/15 10:00:39;;;;;;;4.05;2.15;;;28.80;80.60;;;;;;5065755;28;20024;-72
2021/06/15 10:03:05;;;;;;;3.97;1.95;;;28.90;80.60;;;;;;5064022;28;20447;-72
2021/06/15 10:05:36;;;;;;;5.55;2.10;;;28.90;78.60;;;;;;5064237;28;20028;-72
2021/06/15 10:08:06;;;;;;;3.85;2.17;;;28.90;76.80;;;;;;5065621;28;20127;-73
2021/06/15 10:10:41;;;;;;;6.32;2.33;;;28.90;77.20;;;;;;5064722;28;20020;-72
2021/06/15 10:13:08;;;;;;;4.70;2.50;;;29.10;79.70;;;;;;5063385;28;20032;-72
2021/06/15 10:15:35;;;;;;;6.03;3.00;;;29.30;81.00;;;;;;5064273;28;20017;-72
2021/06/15 10:18:02;;;;;;;6.22;2.72;;;29.20;80.00;;;;;;5063906;28;20538;-73
2021/06/15 10:20:30;;;;;;;5.22;2.55;;;29.10;80.30;;;;;;5063714;28;20044;-72
2021/06/15 10:22:56;;;;;;;4.80;2.60;;;29.00;81.00;;;;;;5062299;28;20029;-72
2021/06/15 10:25:24;;;;;;;7.05;3.13;;;29.00;80.10;;;;;;5065510;28;20504;-73
2021/06/15 10:27:51;;;;;;;4.53;3.00;;;29.10;80.70;;;;;;5065229;28;20028;-73
2021/06/15 10:30:20;;;;;;;6.00;2.22;;;29.10;80.00;;;;;;5066346;28;20021;-73
2021/06/15 10:32:55;;;;;;;3.10;2.50;;;29.10;79.40;;;;;;5063426;28;20028;-73
2021/06/15 10:35:43;;;;;;;8.20;3.17;;;28.90;79.80;;;;;;5062884;28;20055;-73
2021/06/15 10:38:10;;;;;;;6.40;2.88;;;28.80;80.00;;;;;;5065330;28;20300;-73
2021/06/15 10:40:38;;;;;;;6.85;2.90;;;28.80;79.20;;;;;;5065973;28;20488;-73
2021/06/15 10:43:27;;;;;;;4.70;2.88;;;28.90;78.90;;;;;;5064682;28;20033;-73
2021/06/15 10:45:57;;;;;;;4.28;2.80;;;29.10;79.70;;;;;;5065535;28;20033;-73
2021/06/15 10:48:25;;;;;;;3.97;2.35;;;29.20;79.00;;;;;;5064840;28;21399;-73
2021/06/15 10:50:57;;;;;;;5.63;2.78;;;29.20;76.90;;;;;;5065851;28;20024;-73
2021/06/15 10:53:36;;;;;;;4.55;2.60;;;29.30;78.90;;;;;;5063563;28;20075;-73
2021/06/15 10:56:07;;;;;;;5.20;2.58;;;29.40;77.10;;;;;;5064748;28;20033;-73
2021/06/15 10:58:36;;;;;;;3.70;2.00;;;29.40;78.10;;;;;;5055334;28;20040;-73
2021/06/15 11:01:16;;;;;;;4.70;2.60;;;29.50;76.70;;;;;;5051358;28;20021;-73
2021/06/15 11:03:55;;;;;;;3.70;2.58;;;29.60;76.10;;;;;;5051461;28;20033;-73
2021/06/15 11:06:36;;;;;;;6.22;2.60;;;29.60;78.10;;;;;;5048134;28;20045;-73
2021/06/15 11:09:17;;;;;;;3.30;1.75;;;29.80;77.80;;;;;;5046220;28;20033;-73
2021/06/15 11:11:46;;;;;;;2.85;1.90;;;30.00;71.10;;;;;;5047090;28;20422;-73
2021/06/15 11:14:21;;;;;;;2.42;1.90;;;30.30;70.00;;;;;;5049979;28;20500;-73
2021/06/15 11:16:53;;;;;;;3.13;2.00;;;30.50;66.30;;;;;;5049015;28;20025;-73
2021/06/15 11:19:22;;;;;;;3.92;2.22;;;30.70;70.70;;;;;;5044993;28;20071;-74
2021/06/15 11:21:52;;;;;;;4.15;2.10;;;30.90;64.60;;;;;;5051542;28;20025;-73
2021/06/15 11:24:29;;;;;;;2.22;1.95;;;31.10;66.40;;;;;;5041111;28;20025;-73
2021/06/15 11:27:00;;;;;;;4.45;2.30;;;31.30;68.00;;;;;;5040684;28;20090;-73
2021/06/15 11:29:40;;;;;;;3.72;2.10;;;31.20;65.50;;;;;;5038292;28;20033;-73
2021/06/15 11:32:17;;;;;;;4.30;2.17;;;30.90;65.00;;;;;;5049844;28;20025;-74
2021/06/15 11:35:03;;;;;;;2.97;1.90;;;31.00;67.80;;;;;;5039657;28;20017;-73
2021/06/15 11:37:38;;;;;;;3.10;1.80;;;31.20;63.90;;;;;;5046011;28;20048;-73
2021/06/15 11:40:27;;;;;;;5.00;2.20;;;31.40;64.90;;;;;;5040278;28;20029;-74
2021/06/15 11:42:56;;;;;;;2.72;1.80;;;31.60;64.90;;;;;;5048596;28;20048;-75
2021/06/15 11:45:31;;;;;;;2.40;1.80;;;31.80;62.40;;;;;;5038648;28;20374;-83
2021/06/15 11:48:17;;;;;;;3.58;2.25;;;32.00;57.70;;;;;;5046618;28;20041;-75
2021/06/15 11:50:45;;;;;;;2.05;1.80;;;32.20;57.50;;;;;;5051627;28;20094;-75
2021/06/15 11:53:16;;;;;;;4.00;2.42;;;32.30;60.30;;;;;;5046333;28;20021;-75
2021/06/15 11:55:55;;;;;;;3.15;2.25;;;32.50;60.50;;;;;;5051476;28;20124;-75
2021/06/15 11:58:26;;;;;;;5.03;2.15;;;32.30;58.10;;;;;;5042250;28;20034;-75
2021/06/15 12:01:07;;;;;;;3.22;2.05;;;32.20;59.30;;;;;;5051552;28;20112;-75
2021/06/15 12:03:36;;;;;;;3.20;2.40;;;32.10;58.00;;;;;;5041852;28;20519;-75
2021/06/15 12:06:01;;;;;;;2.80;1.85;;;32.20;59.40;;;;;;5043282;28;20030;-75
2021/06/15 12:08:32;;;;;;;2.42;1.77;;;32.40;58.90;;;;;;5043830;28;20451;-75
2021/06/15 12:10:59;;;;;;;3.28;1.63;;;32.60;58.60;;;;;;5041529;28;20556;-74
2021/06/15 12:13:29;;;;;;;2.88;2.13;;;32.80;55.60;;;;;;5050167;28;20029;-75
2021/06/15 12:16:12;;;;;;;36.47;5.82;;;33.10;56.40;;;;;;5031336;28;20083;-74
2021/06/15 12:18:45;;;;;;;7.93;2.92;;;33.00;56.20;;;;;;5045541;28;20598;-74
2021/06/15 12:21:14;;;;;;;3.63;2.03;;;32.90;56.70;;;;;;5050004;28;20022;-75
2021/06/15 12:23:41;;;;;;;5.20;2.03;;;32.80;55.30;;;;;;5046275;28;20032;-75
2021/06/15 12:26:12;;;;;;;3.67;1.88;;;32.60;57.30;;;;;;5049790;28;20029;-75
2021/06/15 12:28:41;;;;;;;2.65;2.10;;;32.60;59.10;;;;;;5047537;28;20032;-75
2021/06/15 12:31:20;;;;;;;5.20;2.25;;;32.90;58.10;;;;;;5050254;28;20549;-75
2021/06/15 12:33:51;;;;;;;2.40;1.92;;;33.10;57.80;;;;;;5040633;28;20497;-75
2021/06/15 12:36:20;;;;;;;4.07;1.80;;;33.50;56.60;;;;;;5045256;28;20561;-75
2021/06/15 12:38:47;;;;;;;2.25;1.70;;;33.70;55.10;;;;;;5044649;28;20418;-75
2021/06/15 12:41:16;;;;;;;3.85;2.30;;;33.90;54.20;;;;;;5046323;28;20033;-75
2021/06/15 12:43:42;;;;;;;2.67;2.00;;;33.70;55.20;;;;;;5044728;28;20045;-75
2021/06/15 12:46:28;;;;;;;3.08;2.20;;;33.10;55.00;;;;;;5049003;28;20386;-74
2021/06/15 12:49:06;;;;;;;3.78;2.30;;;32.60;57.00;;;;;;5039269;28;20021;-74
2021/06/15 12:51:44;;;;;;;6.25;2.50;;;32.60;55.30;;;;;;5037337;28;20488;-75
2021/06/15 12:54:37;;;;;;;2.75;2.30;;;32.40;55.90;;;;;;5044254;28;20033;-75
2021/06/15 12:57:17;;;;;;;5.30;1.90;;;32.90;56.70;;;;;;5049757;28;20128;-75
2021/06/15 12:59:55;;;;;;;4.78;2.00;;;33.30;55.80;;;;;;5040690;28;20429;-74
2021/06/15 13:02:24;;;;;;;6.05;2.13;;;33.10;56.50;;;;;;5047081;28;20412;-74
2021/06/15 13:04:56;;;;;;;6.20;2.00;;;33.00;57.10;;;;;;5047592;28;20013;-74
2021/06/15 13:07:27;;;;;;;7.55;2.20;;;32.60;57.70;;;;;;5048043;28;20451;-74
2021/06/15 13:09:55;;;;;;;2.65;2.05;;;32.90;58.10;;;;;;5048276;28;20024;-74
2021/06/15 13:12:23;;;;;;;5.35;1.90;;;32.80;57.80;;;;;;5047135;28;20459;-74
2021/06/15 13:14:54;;;;;;;6.28;2.35;;;32.80;57.00;;;;;;5045127;28;20033;-75
2021/06/15 13:17:28;;;;;;;4.72;2.22;;;32.80;58.20;;;;;;5049406;28;20032;-74
2021/06/15 13:20:00;;;;;;;;;;;33.10;58.10;;;;;;5035266;28;20021;-74
2021/06/15 13:22:26;;;;;;;3.35;2.10;;;33.20;57.80;;;;;;5048981;28;19966;-74
2021/06/15 13:24:52;;;;;;;3.15;2.22;;;33.40;57.80;;;;;;5045249;28;20086;-74
2021/06/15 13:27:22;;;;;;;3.15;2.00;;;33.50;56.70;;;;;;5044835;28;20037;-74
2021/06/15 13:29:49;;;;;;;3.08;2.30;;;33.90;57.60;;;;;;5050096;28;20025;-74
2021/06/15 13:32:20;;;;;;;8.65;2.47;;;34.60;56.40;;;;;;5046721;28;20025;-74
2021/06/15 13:35:02;;;;;;;3.65;1.95;;;35.40;56.80;;;;;;5043519;28;20025;-73
2021/06/15 13:37:29;;;;;;;5.35;2.65;;;36.90;54.00;;;;;;5037974;28;20028;-74
2021/06/15 13:39:56;;;;;;;4.38;2.40;;;38.40;50.30;;;;;;5045188;28;20044;-74
2021/06/15 13:42:27;;;;;;;4.47;2.25;;;39.20;47.80;;;;;;5046025;28;20041;-74
2021/06/15 13:45:06;;;;;;;4.90;1.90;;;39.60;48.30;;;;;;5044572;28;20017;-74
2021/06/15 13:47:33;;;;;;;8.23;2.00;;;40.00;46.70;;;;;;5048360;28;20040;-74
2021/06/15 13:49:59;;;;;;;5.32;2.00;;;40.70;45.60;;;;;;5047582;28;20081;-74
2021/06/15 13:52:24;;;;;;;4.25;2.15;;;39.70;45.70;;;;;;5046155;28;20036;-74
2021/06/15 13:54:51;;;;;;;3.72;2.10;;;39.60;47.30;;;;;;5034591;28;20025;-74
2021/06/15 13:57:17;;;;;;;3.25;2.25;;;39.80;46.50;;;;;;5038639;28;20038;-74
2021/06/15 13:59:43;;;;;;;4.90;2.03;;;39.70;46.20;;;;;;5049601;28;20465;-74
2021/06/15 14:02:09;;;;;;;2.97;1.80;;;39.50;46.60;;;;;;5047399;28;20162;-74
2021/06/15 14:04:34;;;;;;;3.90;2.10;;;40.20;45.50;;;;;;5040423;28;20559;-74
2021/06/15 14:20:31;;;;;;;6.15;2.05;;;40.50;42.90;;;;;;5043122;28;20051;-73
2021/06/15 14:22:57;;;;;;;3.50;1.90;;;41.40;41.70;;;;;;5043486;28;20063;-72
2021/06/15 14:25:26;;;;;;;4.53;1.92;;;40.70;41.90;;;;;;5048075;28;20107;-72